Strona główna
METAR-TAF:

METAR-TAF

Lotnisko :

Port lotniczy Saint-Brieuc - Armor

Saint-Brieuc, Francja

Szerokość geograficzna: 48-32N, Długość geograficzna: 002-51W, wysokość: 138 m

Aktualna obserwacja pogody

Raport powstał 16 minut temu, godzina 07:00 UTC
Wiatr 8 kt od zachód
Temperatura 3°C
Wilgotność 81%
Ciśnienie 1010 hPa
Widzialność 10 km lub więcej
Przerywane chmury na wysokości 3900 ft
Przerywane chmury na wysokości 4500 ft
Zachmurzenie całkowite na wysokości 11000 ft

METAR: LFRT 260700Z AUTO 27008KT 9999 BKN039 BKN045 OVC110 03/00 Q1010

czas: 08:16 (07:16 UTC)


TAF: brakujący

Obserwacja i prognoza pogody dla ponad 4000 lotnisk (raport METAR i TAF).

Dostępne stacje oznaczono żółtymi i czerwonymi punktami na mapie.

Najedź kursorem aby zobaczyć nazwę stacji.

Kliknij aby zobaczyć obserwacje i prognozy pogody.

Aby zmienić mapę: kliknij na zielony przycisk z czarnym krzyżykiem, aby powiększyć; na zielony przycisk z myślnikiem, aby pomniejszyć; na zielone strzałki, aby przejść do map sąsiednich.


METAR-TAF: